Terminal Aerodrome Forecast
Issued by NWS

Home | Current Version | Previous Version | Text Only | Print | Product List | Glossary Off
Versions: 1 2 3 4 5 6 7 8 9 10 11 12

784
FTUS45 KGGW 231130
TAFSDY
TAF
KSDY 231130Z 2312/2412 31010KT P6SM SCT080
     FM231500 31018KT P6SM SCT080
     FM240300 32009KT P6SM SKC
     FM240800 32005KT P6SM FEW080=

USA.gov is the U.S. government's official web portal to all federal, state and local government web resources and services.